sensor_id;sensor_type;location;lat;lon;timestamp;pressure;altitude;pressure_sealevel;temperature
49785;BMP280;35679;38.732;-121.358;2023-05-07T00:01:55;101375.25;;;19.35
49785;BMP280;35679;38.732;-121.358;2023-05-07T00:04:45;101375.84;;;19.37
49785;BMP280;35679;38.732;-121.358;2023-05-07T00:07:35;101384.09;;;19.42
49785;BMP280;35679;38.732;-121.358;2023-05-07T00:10:24;101378.31;;;19.45
49785;BMP280;35679;38.732;-121.358;2023-05-07T00:13:14;101388.81;;;19.46
49785;BMP280;35679;38.732;-121.358;2023-05-07T00:16:04;101376.66;;;19.50
49785;BMP280;35679;38.732;-121.358;2023-05-07T00:18:54;101377.47;;;19.51
49785;BMP280;35679;38.732;-121.358;2023-05-07T00:21:44;101382.41;;;19.54
49785;BMP280;35679;38.732;-121.358;2023-05-07T00:24:33;101369.88;;;19.54
49785;BMP280;35679;38.732;-121.358;2023-05-07T00:27:24;101370.69;;;19.55
49785;BMP280;35679;38.732;-121.358;2023-05-07T00:30:14;101367.38;;;19.53
49785;BMP280;35679;38.732;-121.358;2023-05-07T00:33:03;101360.59;;;19.57
49785;BMP280;35679;38.732;-121.358;2023-05-07T00:35:53;101366.13;;;19.55
49785;BMP280;35679;38.732;-121.358;2023-05-07T00:38:45;101361.19;;;19.59
49785;BMP280;35679;38.732;-121.358;2023-05-07T00:41:34;101362.84;;;19.60
49785;BMP280;35679;38.732;-121.358;2023-05-07T00:44:23;101356.03;;;19.64
49785;BMP280;35679;38.732;-121.358;2023-05-07T00:47:14;101355.41;;;19.55
49785;BMP280;35679;38.732;-121.358;2023-05-07T00:50:04;101358.69;;;19.64
49785;BMP280;35679;38.732;-121.358;2023-05-07T00:52:54;101363.44;;;19.68
49785;BMP280;35679;38.732;-121.358;2023-05-07T00:55:44;101356.22;;;19.69
49785;BMP280;35679;38.732;-121.358;2023-05-07T00:58:33;101369.00;;;19.67
49785;BMP280;35679;38.732;-121.358;2023-05-07T01:01:23;101362.00;;;19.66
49785;BMP280;35679;38.732;-121.358;2023-05-07T01:04:12;101367.34;;;19.66
49785;BMP280;35679;38.732;-121.358;2023-05-07T01:07:03;101376.19;;;19.66
49785;BMP280;35679;38.732;-121.358;2023-05-07T01:09:53;101372.88;;;19.77
49785;BMP280;35679;38.732;-121.358;2023-05-07T01:12:44;101376.41;;;19.77
49785;BMP280;35679;38.732;-121.358;2023-05-07T01:15:34;101368.56;;;19.82
49785;BMP280;35679;38.732;-121.358;2023-05-07T01:18:23;101380.72;;;19.72
49785;BMP280;35679;38.732;-121.358;2023-05-07T01:21:15;101376.41;;;19.71
49785;BMP280;35679;38.732;-121.358;2023-05-07T01:24:05;101380.94;;;19.71
49785;BMP280;35679;38.732;-121.358;2023-05-07T01:26:55;101390.00;;;19.70
49785;BMP280;35679;38.732;-121.358;2023-05-07T01:29:44;101390.00;;;19.70
49785;BMP280;35679;38.732;-121.358;2023-05-07T01:35:36;101389.59;;;19.66
49785;BMP280;35679;38.732;-121.358;2023-05-07T01:38:27;101383.63;;;19.64
49785;BMP280;35679;38.732;-121.358;2023-05-07T01:41:18;101383.41;;;19.66
49785;BMP280;35679;38.732;-121.358;2023-05-07T01:44:10;101387.13;;;19.65
49785;BMP280;35679;38.732;-121.358;2023-05-07T01:47:02;101383.81;;;19.63
49785;BMP280;35679;38.732;-121.358;2023-05-07T01:49:52;101391.66;;;19.64
49785;BMP280;35679;38.732;-121.358;2023-05-07T01:52:41;101398.47;;;19.67
49785;BMP280;35679;38.732;-121.358;2023-05-07T01:55:30;101402.94;;;19.85
49785;BMP280;35679;38.732;-121.358;2023-05-07T01:58:20;101398.47;;;19.67
49785;BMP280;35679;38.732;-121.358;2023-05-07T02:01:10;101404.66;;;19.61
49785;BMP280;35679;38.732;-121.358;2023-05-07T02:03:59;101410.63;;;19.56
49785;BMP280;35679;38.732;-121.358;2023-05-07T02:06:50;101405.06;;;19.51
49785;BMP280;35679;38.732;-121.358;2023-05-07T02:09:40;101409.41;;;19.52
49785;BMP280;35679;38.732;-121.358;2023-05-07T02:12:29;101421.97;;;19.52
49785;BMP280;35679;38.732;-121.358;2023-05-07T02:15:19;101406.94;;;19.51
49785;BMP280;35679;38.732;-121.358;2023-05-07T02:18:08;101410.63;;;19.50
49785;BMP280;35679;38.732;-121.358;2023-05-07T02:20:58;101416.78;;;19.50
49785;BMP280;35679;38.732;-121.358;2023-05-07T02:23:47;101423.59;;;19.46
49785;BMP280;35679;38.732;-121.358;2023-05-07T02:26:36;101422.78;;;19.46
49785;BMP280;35679;38.732;-121.358;2023-05-07T02:29:26;101418.47;;;19.45
49785;BMP280;35679;38.732;-121.358;2023-05-07T02:32:15;101428.75;;;19.41
49785;BMP280;35679;38.732;-121.358;2023-05-07T02:35:05;101421.16;;;19.38
49785;BMP280;35679;38.732;-121.358;2023-05-07T02:37:54;101417.84;;;19.43
49785;BMP280;35679;38.732;-121.358;2023-05-07T02:40:45;101425.69;;;19.44
49785;BMP280;35679;38.732;-121.358;2023-05-07T02:43:34;101428.75;;;19.48
49785;BMP280;35679;38.732;-121.358;2023-05-07T02:46:24;101423.00;;;19.44
49785;BMP280;35679;38.732;-121.358;2023-05-07T02:49:20;101426.72;;;19.43
49785;BMP280;35679;38.732;-121.358;2023-05-07T02:52:10;101433.28;;;19.41
49785;BMP280;35679;38.732;-121.358;2023-05-07T02:55:00;101444.59;;;19.43
49785;BMP280;35679;38.732;-121.358;2023-05-07T02:57:49;101446.06;;;19.39
49785;BMP280;35679;38.732;-121.358;2023-05-07T03:00:38;101449.75;;;19.38
49785;BMP280;35679;38.732;-121.358;2023-05-07T03:03:42;101451.84;;;19.36
49785;BMP280;35679;38.732;-121.358;2023-05-07T03:06:32;101443.81;;;19.36
49785;BMP280;35679;38.732;-121.358;2023-05-07T03:09:22;101444.81;;;19.35
49785;BMP280;35679;38.732;-121.358;2023-05-07T03:12:11;101448.53;;;19.34
49785;BMP280;35679;38.732;-121.358;2023-05-07T03:15:01;101447.09;;;19.31
49785;BMP280;35679;38.732;-121.358;2023-05-07T03:17:50;101452.66;;;19.30
49785;BMP280;35679;38.732;-121.358;2023-05-07T03:20:40;101457.78;;;19.31
49785;BMP280;35679;38.732;-121.358;2023-05-07T03:23:29;101460.25;;;19.26
49785;BMP280;35679;38.732;-121.358;2023-05-07T03:26:19;101465.41;;;19.28
49785;BMP280;35679;38.732;-121.358;2023-05-07T03:29:09;101462.13;;;19.26
49785;BMP280;35679;38.732;-121.358;2023-05-07T03:31:58;101466.41;;;19.27
49785;BMP280;35679;38.732;-121.358;2023-05-07T03:34:48;101468.28;;;19.20
49785;BMP280;35679;38.732;-121.358;2023-05-07T03:37:38;101469.31;;;19.19
49785;BMP280;35679;38.732;-121.358;2023-05-07T03:40:29;101462.50;;;19.16
49785;BMP280;35679;38.732;-121.358;2023-05-07T03:43:18;101468.06;;;19.15
49785;BMP280;35679;38.732;-121.358;2023-05-07T03:46:13;101464.13;;;19.11
49785;BMP280;35679;38.732;-121.358;2023-05-07T03:49:02;101469.91;;;19.08
49785;BMP280;35679;38.732;-121.358;2023-05-07T03:51:52;101468.44;;;19.06
49785;BMP280;35679;38.732;-121.358;2023-05-07T03:54:42;101471.78;;;19.08
49785;BMP280;35679;38.732;-121.358;2023-05-07T03:57:34;101474.81;;;19.05
49785;BMP280;35679;38.732;-121.358;2023-05-07T04:00:24;101483.84;;;19.04
49785;BMP280;35679;38.732;-121.358;2023-05-07T04:03:18;101477.69;;;19.03
49785;BMP280;35679;38.732;-121.358;2023-05-07T04:06:09;101484.06;;;19.02
49785;BMP280;35679;38.732;-121.358;2023-05-07T04:09:03;101486.13;;;19.00
49785;BMP280;35679;38.732;-121.358;2023-05-07T04:11:52;101490.84;;;18.98
49785;BMP280;35679;38.732;-121.358;2023-05-07T04:14:42;101489.00;;;18.99
49785;BMP280;35679;38.732;-121.358;2023-05-07T04:17:32;101501.75;;;18.97
49785;BMP280;35679;38.732;-121.358;2023-05-07T04:20:21;101505.03;;;18.92
49785;BMP280;35679;38.732;-121.358;2023-05-07T04:23:18;101504.00;;;18.93
49785;BMP280;35679;38.732;-121.358;2023-05-07T04:26:07;101501.91;;;18.89
49785;BMP280;35679;38.732;-121.358;2023-05-07T04:29:00;101507.47;;;18.87
49785;BMP280;35679;38.732;-121.358;2023-05-07T04:31:52;101507.69;;;18.86
49785;BMP280;35679;38.732;-121.358;2023-05-07T04:34:44;101505.41;;;18.83
49785;BMP280;35679;38.732;-121.358;2023-05-07T04:37:37;101508.72;;;18.85
49785;BMP280;35679;38.732;-121.358;2023-05-07T04:40:26;101503.94;;;18.80
49785;BMP280;35679;38.732;-121.358;2023-05-07T04:43:16;101517.16;;;18.82
49785;BMP280;35679;38.732;-121.358;2023-05-07T04:46:09;101514.66;;;18.80
49785;BMP280;35679;38.732;-121.358;2023-05-07T04:48:59;101520.19;;;18.79
49785;BMP280;35679;38.732;-121.358;2023-05-07T04:51:49;101520.22;;;18.85
49785;BMP280;35679;38.732;-121.358;2023-05-07T04:54:41;101523.72;;;18.79
49785;BMP280;35679;38.732;-121.358;2023-05-07T04:57:32;101525.97;;;18.76
49785;BMP280;35679;38.732;-121.358;2023-05-07T05:00:22;101521.84;;;18.73
49785;BMP280;35679;38.732;-121.358;2023-05-07T05:03:13;101522.88;;;18.72
49785;BMP280;35679;38.732;-121.358;2023-05-07T05:06:03;101524.91;;;18.70
49785;BMP280;35679;38.732;-121.358;2023-05-07T05:08:54;101522.88;;;18.72
49785;BMP280;35679;38.732;-121.358;2023-05-07T05:11:45;101526.75;;;18.70
49785;BMP280;35679;38.732;-121.358;2023-05-07T05:14:35;101534.78;;;18.70
49785;BMP280;35679;38.732;-121.358;2023-05-07T05:17:24;101541.97;;;18.69
49785;BMP280;35679;38.732;-121.358;2023-05-07T05:20:13;101541.16;;;18.69
49785;BMP280;35679;38.732;-121.358;2023-05-07T05:23:03;101543.38;;;18.65
49785;BMP280;35679;38.732;-121.358;2023-05-07T05:25:56;101545.25;;;18.65
49785;BMP280;35679;38.732;-121.358;2023-05-07T05:28:49;101546.25;;;18.64
49785;BMP280;35679;38.732;-121.358;2023-05-07T05:31:41;101536.38;;;18.64
49785;BMP280;35679;38.732;-121.358;2023-05-07T05:34:31;101539.88;;;18.58
49785;BMP280;35679;38.732;-121.358;2023-05-07T05:37:23;101537.81;;;18.60
49785;BMP280;35679;38.732;-121.358;2023-05-07T05:40:13;101538.22;;;18.57
49785;BMP280;35679;38.732;-121.358;2023-05-07T05:43:02;101538.22;;;18.57
49785;BMP280;35679;38.732;-121.358;2023-05-07T05:45:52;101543.78;;;18.56
49785;BMP280;35679;38.732;-121.358;2023-05-07T05:48:42;101542.94;;;18.55
49785;BMP280;35679;38.732;-121.358;2023-05-07T05:51:32;101537.78;;;18.54
49785;BMP280;35679;38.732;-121.358;2023-05-07T05:54:24;101540.47;;;18.54
49785;BMP280;35679;38.732;-121.358;2023-05-07T05:57:14;101538.00;;;18.52
49785;BMP280;35679;38.732;-121.358;2023-05-07T06:00:06;101533.66;;;18.51
49785;BMP280;35679;38.732;-121.358;2023-05-07T06:03:04;101535.53;;;18.51
49785;BMP280;35679;38.732;-121.358;2023-05-07T06:05:55;101539.22;;;18.50
49785;BMP280;35679;38.732;-121.358;2023-05-07T06:08:45;101543.13;;;18.47
49785;BMP280;35679;38.732;-121.358;2023-05-07T06:11:41;101544.34;;;18.45
49785;BMP280;35679;38.732;-121.358;2023-05-07T06:14:32;101547.38;;;18.42
49785;BMP280;35679;38.732;-121.358;2023-05-07T06:17:21;101542.03;;;18.42
49785;BMP280;35679;38.732;-121.358;2023-05-07T06:20:10;101551.91;;;18.42
49785;BMP280;35679;38.732;-121.358;2023-05-07T06:23:00;101547.00;;;18.45
49785;BMP280;35679;38.732;-121.358;2023-05-07T06:25:52;101547.38;;;18.42
49785;BMP280;35679;38.732;-121.358;2023-05-07T06:28:46;101556.81;;;18.38
49785;BMP280;35679;38.732;-121.358;2023-05-07T06:31:37;101556.38;;;18.35
49785;BMP280;35679;38.732;-121.358;2023-05-07T06:34:28;101560.06;;;18.34
49785;BMP280;35679;38.732;-121.358;2023-05-07T06:37:17;101556.59;;;18.33
49785;BMP280;35679;38.732;-121.358;2023-05-07T06:40:22;101560.47;;;18.31
49785;BMP280;35679;38.732;-121.358;2023-05-07T06:43:12;101560.88;;;18.28
49785;BMP280;35679;38.732;-121.358;2023-05-07T06:46:21;101563.72;;;18.26
49785;BMP280;35679;38.732;-121.358;2023-05-07T06:49:12;101569.69;;;18.22
49785;BMP280;35679;38.732;-121.358;2023-05-07T06:52:03;101565.38;;;18.27
49785;BMP280;35679;38.732;-121.358;2023-05-07T06:54:52;101563.94;;;18.25
49785;BMP280;35679;38.732;-121.358;2023-05-07T06:57:43;101564.88;;;18.17
49785;BMP280;35679;38.732;-121.358;2023-05-07T07:00:33;101561.41;;;18.17
49785;BMP280;35679;38.732;-121.358;2023-05-07T07:03:22;101570.63;;;18.14
49785;BMP280;35679;38.732;-121.358;2023-05-07T07:06:14;101573.47;;;18.13
49785;BMP280;35679;38.732;-121.358;2023-05-07T07:09:04;101574.53;;;18.12
49785;BMP280;35679;38.732;-121.358;2023-05-07T07:11:53;101577.56;;;18.09
49785;BMP280;35679;38.732;-121.358;2023-05-07T07:14:44;101572.22;;;18.09
49785;BMP280;35679;38.732;-121.358;2023-05-07T07:17:34;101570.56;;;18.08
49785;BMP280;35679;38.732;-121.358;2023-05-07T07:20:24;101576.09;;;18.06
49785;BMP280;35679;38.732;-121.358;2023-05-07T07:23:14;101571.59;;;18.07
49785;BMP280;35679;38.732;-121.358;2023-05-07T07:26:04;101573.44;;;18.06
49785;BMP280;35679;38.732;-121.358;2023-05-07T07:28:54;101575.28;;;18.06
49785;BMP280;35679;38.732;-121.358;2023-05-07T07:31:44;101578.34;;;18.03
49785;BMP280;35679;38.732;-121.358;2023-05-07T07:34:34;101574.88;;;18.09
49785;BMP280;35679;38.732;-121.358;2023-05-07T07:37:23;101576.72;;;18.02
49785;BMP280;35679;38.732;-121.358;2023-05-07T07:40:14;101571.75;;;17.99
49785;BMP280;35679;38.732;-121.358;2023-05-07T07:43:05;101564.38;;;18.01
49785;BMP280;35679;38.732;-121.358;2023-05-07T07:45:54;101571.75;;;17.99
49785;BMP280;35679;38.732;-121.358;2023-05-07T07:48:44;101579.75;;;17.99
49785;BMP280;35679;38.732;-121.358;2023-05-07T07:51:33;101578.72;;;18.00
49785;BMP280;35679;38.732;-121.358;2023-05-07T07:54:23;101575.41;;;17.98
49785;BMP280;35679;38.732;-121.358;2023-05-07T07:57:13;101568.41;;;17.97
49785;BMP280;35679;38.732;-121.358;2023-05-07T08:00:02;101569.63;;;17.94
49785;BMP280;35679;38.732;-121.358;2023-05-07T08:03:03;101575.81;;;17.95
49785;BMP280;35679;38.732;-121.358;2023-05-07T08:05:57;101572.50;;;17.93
49785;BMP280;35679;38.732;-121.358;2023-05-07T08:08:47;101567.38;;;17.91
49785;BMP280;35679;38.732;-121.358;2023-05-07T08:11:37;101572.91;;;17.90
49785;BMP280;35679;38.732;-121.358;2023-05-07T08:14:27;101574.94;;;17.88
49785;BMP280;35679;38.732;-121.358;2023-05-07T08:17:17;101579.91;;;17.91
49785;BMP280;35679;38.732;-121.358;2023-05-07T08:20:07;101572.25;;;17.88
49785;BMP280;35679;38.732;-121.358;2023-05-07T08:22:57;101567.94;;;17.87
49785;BMP280;35679;38.732;-121.358;2023-05-07T08:25:48;101569.16;;;17.84
49785;BMP280;35679;38.732;-121.358;2023-05-07T08:28:39;101571.81;;;17.84
49785;BMP280;35679;38.732;-121.358;2023-05-07T08:31:28;101571.00;;;17.84
49785;BMP280;35679;38.732;-121.358;2023-05-07T08:34:17;101554.78;;;17.85
49785;BMP280;35679;38.732;-121.358;2023-05-07T08:37:08;101558.06;;;17.81
49785;BMP280;35679;38.732;-121.358;2023-05-07T08:39:57;101560.72;;;17.81
49785;BMP280;35679;38.732;-121.358;2023-05-07T08:42:52;101553.94;;;17.78
49785;BMP280;35679;38.732;-121.358;2023-05-07T08:45:45;101556.16;;;17.75
49785;BMP280;35679;38.732;-121.358;2023-05-07T08:48:37;101560.44;;;17.76
49785;BMP280;35679;38.732;-121.358;2023-05-07T08:51:31;101562.31;;;17.75
49785;BMP280;35679;38.732;-121.358;2023-05-07T08:54:21;101553.66;;;17.73
49785;BMP280;35679;38.732;-121.358;2023-05-07T08:57:11;101549.53;;;17.71
49785;BMP280;35679;38.732;-121.358;2023-05-07T09:00:01;101544.38;;;17.70
49785;BMP280;35679;38.732;-121.358;2023-05-07T09:02:52;101553.50;;;17.75
49785;BMP280;35679;38.732;-121.358;2023-05-07T09:05:43;101550.16;;;17.73
49785;BMP280;35679;38.732;-121.358;2023-05-07T09:08:35;101558.19;;;17.73
49785;BMP280;35679;38.732;-121.358;2023-05-07T09:11:27;101561.25;;;17.70
49785;BMP280;35679;38.732;-121.358;2023-05-07T09:14:21;101559.84;;;17.74
49785;BMP280;35679;38.732;-121.358;2023-05-07T09:17:11;101557.13;;;17.68
49785;BMP280;35679;38.732;-121.358;2023-05-07T09:20:05;101551.13;;;17.66
49785;BMP280;35679;38.732;-121.358;2023-05-07T09:22:59;101547.66;;;17.65
49785;BMP280;35679;38.732;-121.358;2023-05-07T09:25:49;101549.69;;;17.63
49785;BMP280;35679;38.732;-121.358;2023-05-07T09:28:45;101548.06;;;17.69
49785;BMP280;35679;38.732;-121.358;2023-05-07T09:31:39;101542.94;;;17.67
49785;BMP280;35679;38.732;-121.358;2023-05-07T09:34:33;101544.53;;;17.62
49785;BMP280;35679;38.732;-121.358;2023-05-07T09:37:23;101544.34;;;17.63
49785;BMP280;35679;38.732;-121.358;2023-05-07T09:40:23;101537.53;;;17.61
49785;BMP280;35679;38.732;-121.358;2023-05-07T09:43:14;101542.94;;;17.67
49785;BMP280;35679;38.732;-121.358;2023-05-07T09:46:14;101534.16;;;17.73
49785;BMP280;35679;38.732;-121.358;2023-05-07T09:49:22;101541.53;;;17.71
49785;BMP280;35679;38.732;-121.358;2023-05-07T09:52:19;101542.13;;;17.67
49785;BMP280;35679;38.732;-121.358;2023-05-07T09:55:13;101543.91;;;17.60
49785;BMP280;35679;38.732;-121.358;2023-05-07T09:58:04;101548.78;;;17.56
49785;BMP280;35679;38.732;-121.358;2023-05-07T10:00:55;101545.88;;;17.51
49785;BMP280;35679;38.732;-121.358;2023-05-07T10:03:46;101552.22;;;17.50
49785;BMP280;35679;38.732;-121.358;2023-05-07T10:06:36;101560.06;;;17.52
49785;BMP280;35679;38.732;-121.358;2023-05-07T10:09:30;101557.56;;;17.50
49785;BMP280;35679;38.732;-121.358;2023-05-07T10:12:20;101559.41;;;17.50
49785;BMP280;35679;38.732;-121.358;2023-05-07T10:15:13;101557.94;;;17.47
49785;BMP280;35679;38.732;-121.358;2023-05-07T10:18:08;101558.97;;;17.46
49785;BMP280;35679;38.732;-121.358;2023-05-07T10:21:04;101553.63;;;17.46
49785;BMP280;35679;38.732;-121.358;2023-05-07T10:24:00;101558.34;;;17.44
49785;BMP280;35679;38.732;-121.358;2023-05-07T10:26:53;101557.69;;;17.42
49785;BMP280;35679;38.732;-121.358;2023-05-07T10:32:56;101555.84;;;17.43
49785;BMP280;35679;38.732;-121.358;2023-05-07T10:36:00;101554.38;;;17.40
49785;BMP280;35679;38.732;-121.358;2023-05-07T10:38:52;101549.44;;;17.37
49785;BMP280;35679;38.732;-121.358;2023-05-07T10:41:41;101548.63;;;17.37
49785;BMP280;35679;38.732;-121.358;2023-05-07T10:44:31;101552.91;;;17.38
49785;BMP280;35679;38.732;-121.358;2023-05-07T10:47:28;101547.16;;;17.34
49785;BMP280;35679;38.732;-121.358;2023-05-07T10:50:20;101549.00;;;17.34
49785;BMP280;35679;38.732;-121.358;2023-05-07T10:53:22;101539.34;;;17.33
49785;BMP280;35679;38.732;-121.358;2023-05-07T10:56:26;101541.63;;;17.36
49785;BMP280;35679;38.732;-121.358;2023-05-07T10:59:36;101547.16;;;17.34
49785;BMP280;35679;38.732;-121.358;2023-05-07T11:06:15;101543.00;;;17.32
49785;BMP280;35679;38.732;-121.358;2023-05-07T11:09:13;101542.59;;;17.28
49785;BMP280;35679;38.732;-121.358;2023-05-07T11:12:12;101541.56;;;17.29
49785;BMP280;35679;38.732;-121.358;2023-05-07T11:15:13;101540.94;;;17.27
49785;BMP280;35679;38.732;-121.358;2023-05-07T11:18:06;101541.94;;;17.26
49785;BMP280;35679;38.732;-121.358;2023-05-07T11:20:59;101549.13;;;17.26
49785;BMP280;35679;38.732;-121.358;2023-05-07T11:24:09;101545.78;;;17.24
49785;BMP280;35679;38.732;-121.358;2023-05-07T11:27:23;101556.00;;;17.20
49785;BMP280;35679;38.732;-121.358;2023-05-07T11:30:18;101542.66;;;17.20
49785;BMP280;35679;38.732;-121.358;2023-05-07T11:33:08;101541.00;;;17.19
49785;BMP280;35679;38.732;-121.358;2023-05-07T11:36:00;101536.31;;;17.21
49785;BMP280;35679;38.732;-121.358;2023-05-07T11:38:55;101540.66;;;17.22
49785;BMP280;35679;38.732;-121.358;2023-05-07T11:41:45;101537.31;;;17.20
49785;BMP280;35679;38.732;-121.358;2023-05-07T11:44:44;101537.53;;;17.19
49785;BMP280;35679;38.732;-121.358;2023-05-07T11:47:35;101543.88;;;17.18
49785;BMP280;35679;38.732;-121.358;2023-05-07T11:50:26;101538.09;;;17.14
49785;BMP280;35679;38.732;-121.358;2023-05-07T11:53:15;101536.06;;;17.16
49785;BMP280;35679;38.732;-121.358;2023-05-07T11:56:13;101540.59;;;17.16
49785;BMP280;35679;38.732;-121.358;2023-05-07T11:59:02;101531.13;;;17.13
49785;BMP280;35679;38.732;-121.358;2023-05-07T12:01:52;101523.28;;;17.12
49785;BMP280;35679;38.732;-121.358;2023-05-07T12:04:44;101524.34;;;17.11
49785;BMP280;35679;38.732;-121.358;2023-05-07T12:07:34;101516.94;;;17.13
49785;BMP280;35679;38.732;-121.358;2023-05-07T12:10:23;101514.47;;;17.11
49785;BMP280;35679;38.732;-121.358;2023-05-07T12:13:20;101516.75;;;17.14
49785;BMP280;35679;38.732;-121.358;2023-05-07T12:16:10;101518.41;;;17.15
49785;BMP280;35679;38.732;-121.358;2023-05-07T12:19:00;101513.81;;;17.09
49785;BMP280;35679;38.732;-121.358;2023-05-07T12:21:50;101508.88;;;17.07
49785;BMP280;35679;38.732;-121.358;2023-05-07T12:25:03;101510.72;;;17.06
49785;BMP280;35679;38.732;-121.358;2023-05-07T12:27:53;101513.38;;;17.06
49785;BMP280;35679;38.732;-121.358;2023-05-07T12:30:43;101515.22;;;17.06
49785;BMP280;35679;38.732;-121.358;2023-05-07T12:33:34;101519.09;;;17.03
49785;BMP280;35679;38.732;-121.358;2023-05-07T12:36:24;101521.97;;;17.02
49785;BMP280;35679;38.732;-121.358;2023-05-07T12:39:14;101517.63;;;17.01
49785;BMP280;35679;38.732;-121.358;2023-05-07T12:42:04;101513.13;;;17.01
49785;BMP280;35679;38.732;-121.358;2023-05-07T12:44:53;101508.19;;;16.98
49785;BMP280;35679;38.732;-121.358;2023-05-07T12:47:47;101515.16;;;16.99
49785;BMP280;35679;38.732;-121.358;2023-05-07T12:50:36;101511.50;;;17.00
49785;BMP280;35679;38.732;-121.358;2023-05-07T12:53:27;101508.81;;;17.00
49785;BMP280;35679;38.732;-121.358;2023-05-07T12:56:16;101514.31;;;16.99
49785;BMP280;35679;38.732;-121.358;2023-05-07T12:59:05;101512.69;;;16.98
49785;BMP280;35679;38.732;-121.358;2023-05-07T13:01:55;101519.03;;;16.97
49785;BMP280;35679;38.732;-121.358;2023-05-07T13:04:44;101527.22;;;16.95
49785;BMP280;35679;38.732;-121.358;2023-05-07T13:07:34;101518.84;;;16.98
49785;BMP280;35679;38.732;-121.358;2023-05-07T13:10:24;101521.50;;;16.98
49785;BMP280;35679;38.732;-121.358;2023-05-07T13:13:13;101515.72;;;16.95
49785;BMP280;35679;38.732;-121.358;2023-05-07T13:16:04;101532.91;;;16.92
49785;BMP280;35679;38.732;-121.358;2023-05-07T13:18:54;101530.91;;;16.94
49785;BMP280;35679;38.732;-121.358;2023-05-07T13:21:43;101529.50;;;16.98
49785;BMP280;35679;38.732;-121.358;2023-05-07T13:24:33;101532.38;;;16.97
49785;BMP280;35679;38.732;-121.358;2023-05-07T13:27:22;101544.03;;;16.96
49785;BMP280;35679;38.732;-121.358;2023-05-07T13:30:11;101551.38;;;16.94
49785;BMP280;35679;38.732;-121.358;2023-05-07T13:33:01;101542.56;;;16.93
49785;BMP280;35679;38.732;-121.358;2023-05-07T13:35:50;101549.13;;;16.91
49785;BMP280;35679;38.732;-121.358;2023-05-07T13:38:40;101555.91;;;16.93
49785;BMP280;35679;38.732;-121.358;2023-05-07T13:41:29;101558.78;;;16.92
49785;BMP280;35679;38.732;-121.358;2023-05-07T13:44:18;101563.25;;;16.91
49785;BMP280;35679;38.732;-121.358;2023-05-07T13:47:08;101567.78;;;16.91
49785;BMP280;35679;38.732;-121.358;2023-05-07T13:49:57;101575.38;;;16.94
49785;BMP280;35679;38.732;-121.358;2023-05-07T13:52:46;101573.09;;;16.91
49785;BMP280;35679;38.732;-121.358;2023-05-07T13:55:39;101570.25;;;16.92
49785;BMP280;35679;38.732;-121.358;2023-05-07T13:58:28;101571.25;;;16.91
49785;BMP280;35679;38.732;-121.358;2023-05-07T14:01:18;101572.09;;;16.92
49785;BMP280;35679;38.732;-121.358;2023-05-07T14:04:07;101573.56;;;16.94
49785;BMP280;35679;38.732;-121.358;2023-05-07T14:06:56;101578.91;;;16.94
49785;BMP280;35679;38.732;-121.358;2023-05-07T14:09:45;101575.38;;;16.94
49785;BMP280;35679;38.732;-121.358;2023-05-07T14:12:35;101579.25;;;16.91
49785;BMP280;35679;38.732;-121.358;2023-05-07T14:15:24;101574.75;;;16.92
49785;BMP280;35679;38.732;-121.358;2023-05-07T14:18:14;101576.22;;;16.94
49785;BMP280;35679;38.732;-121.358;2023-05-07T14:21:04;101585.88;;;16.95
49785;BMP280;35679;38.732;-121.358;2023-05-07T14:23:55;101577.03;;;16.95
49785;BMP280;35679;38.732;-121.358;2023-05-07T14:26:45;101579.72;;;16.95
49785;BMP280;35679;38.732;-121.358;2023-05-07T14:29:34;101573.75;;;16.93
49785;BMP280;35679;38.732;-121.358;2023-05-07T14:32:25;101573.56;;;16.94
49785;BMP280;35679;38.732;-121.358;2023-05-07T14:35:14;101571.09;;;16.93
49785;BMP280;35679;38.732;-121.358;2023-05-07T14:38:03;101577.22;;;16.93
49785;BMP280;35679;38.732;-121.358;2023-05-07T14:40:53;101577.44;;;16.92
49785;BMP280;35679;38.732;-121.358;2023-05-07T14:43:44;101581.75;;;16.93
49785;BMP280;35679;38.732;-121.358;2023-05-07T14:46:38;101573.75;;;16.93
49785;BMP280;35679;38.732;-121.358;2023-05-07T14:49:28;101581.56;;;16.94
49785;BMP280;35679;38.732;-121.358;2023-05-07T14:52:17;101577.22;;;16.93
49785;BMP280;35679;38.732;-121.358;2023-05-07T14:55:07;101591.56;;;16.92
49785;BMP280;35679;38.732;-121.358;2023-05-07T14:57:57;101589.56;;;16.94
49785;BMP280;35679;38.732;-121.358;2023-05-07T15:00:46;101595.72;;;16.95
49785;BMP280;35679;38.732;-121.358;2023-05-07T15:03:36;101588.72;;;16.94
49785;BMP280;35679;38.732;-121.358;2023-05-07T15:06:25;101587.72;;;16.95
49785;BMP280;35679;38.732;-121.358;2023-05-07T15:09:15;101593.88;;;16.95
49785;BMP280;35679;38.732;-121.358;2023-05-07T15:12:04;101586.69;;;16.96
49785;BMP280;35679;38.732;-121.358;2023-05-07T15:14:54;101598.84;;;16.98
49785;BMP280;35679;38.732;-121.358;2023-05-07T15:17:43;101593.31;;;17.00
49785;BMP280;35679;38.732;-121.358;2023-05-07T15:20:33;101595.34;;;16.98
49785;BMP280;35679;38.732;-121.358;2023-05-07T15:23:23;101592.50;;;16.99
49785;BMP280;35679;38.732;-121.358;2023-05-07T15:26:12;101597.81;;;16.99
49785;BMP280;35679;38.732;-121.358;2023-05-07T15:29:01;101604.97;;;16.99
49785;BMP280;35679;38.732;-121.358;2023-05-07T15:31:52;101600.28;;;17.01
49785;BMP280;35679;38.732;-121.358;2023-05-07T15:34:41;101599.91;;;17.04
49785;BMP280;35679;38.732;-121.358;2023-05-07T15:37:31;101611.03;;;17.07
49785;BMP280;35679;38.732;-121.358;2023-05-07T15:40:21;101612.03;;;17.06
49785;BMP280;35679;38.732;-121.358;2023-05-07T15:43:11;101616.94;;;17.03